sensor_id;sensor_type;location;lat;lon;timestamp;temperature;humidity
20866;DHT22;10593;48.398;10.698;2023-04-24T00:01:43;17.80;52.40
20866;DHT22;10593;48.398;10.698;2023-04-24T00:04:08;17.80;52.40
20866;DHT22;10593;48.398;10.698;2023-04-24T00:06:36;17.80;52.40
20866;DHT22;10593;48.398;10.698;2023-04-24T00:09:04;17.80;52.40
20866;DHT22;10593;48.398;10.698;2023-04-24T00:11:30;17.70;52.30
20866;DHT22;10593;48.398;10.698;2023-04-24T00:13:56;17.70;52.30
20866;DHT22;10593;48.398;10.698;2023-04-24T00:16:22;17.70;52.40
20866;DHT22;10593;48.398;10.698;2023-04-24T00:18:48;17.70;52.30
20866;DHT22;10593;48.398;10.698;2023-04-24T00:21:15;17.70;52.30
20866;DHT22;10593;48.398;10.698;2023-04-24T00:23:43;17.70;52.40
20866;DHT22;10593;48.398;10.698;2023-04-24T00:26:09;17.60;52.20
20866;DHT22;10593;48.398;10.698;2023-04-24T00:28:34;17.60;52.20
20866;DHT22;10593;48.398;10.698;2023-04-24T00:31:00;17.60;52.30
20866;DHT22;10593;48.398;10.698;2023-04-24T00:33:26;17.60;52.30
20866;DHT22;10593;48.398;10.698;2023-04-24T00:35:52;17.60;52.30
20866;DHT22;10593;48.398;10.698;2023-04-24T00:38:18;17.60;52.30
20866;DHT22;10593;48.398;10.698;2023-04-24T00:40:44;17.50;52.20
20866;DHT22;10593;48.398;10.698;2023-04-24T00:43:10;17.50;52.30
20866;DHT22;10593;48.398;10.698;2023-04-24T00:45:36;17.50;52.20
20866;DHT22;10593;48.398;10.698;2023-04-24T00:48:02;17.50;52.20
20866;DHT22;10593;48.398;10.698;2023-04-24T00:50:28;17.50;52.30
20866;DHT22;10593;48.398;10.698;2023-04-24T00:52:55;17.50;52.30
20866;DHT22;10593;48.398;10.698;2023-04-24T00:55:21;17.50;52.40
20866;DHT22;10593;48.398;10.698;2023-04-24T00:57:48;17.40;52.30
20866;DHT22;10593;48.398;10.698;2023-04-24T01:00:15;17.40;52.30
20866;DHT22;10593;48.398;10.698;2023-04-24T01:02:44;17.40;52.40
20866;DHT22;10593;48.398;10.698;2023-04-24T01:05:14;17.40;52.30
20866;DHT22;10593;48.398;10.698;2023-04-24T01:07:43;17.40;52.40
20866;DHT22;10593;48.398;10.698;2023-04-24T01:10:11;17.40;52.40
20866;DHT22;10593;48.398;10.698;2023-04-24T01:12:38;17.30;52.30
20866;DHT22;10593;48.398;10.698;2023-04-24T01:15:05;17.30;52.30
20866;DHT22;10593;48.398;10.698;2023-04-24T01:17:32;17.30;52.30
20866;DHT22;10593;48.398;10.698;2023-04-24T01:19:59;17.30;52.30
20866;DHT22;10593;48.398;10.698;2023-04-24T01:22:26;17.30;52.30
20866;DHT22;10593;48.398;10.698;2023-04-24T01:24:53;17.30;52.40
20866;DHT22;10593;48.398;10.698;2023-04-24T01:27:19;17.30;52.30
20866;DHT22;10593;48.398;10.698;2023-04-24T01:29:45;17.20;52.20
20866;DHT22;10593;48.398;10.698;2023-04-24T01:32:13;17.20;52.30
20866;DHT22;10593;48.398;10.698;2023-04-24T01:34:39;17.20;52.40
20866;DHT22;10593;48.398;10.698;2023-04-24T01:37:05;17.20;52.40
20866;DHT22;10593;48.398;10.698;2023-04-24T01:39:32;17.20;52.40
20866;DHT22;10593;48.398;10.698;2023-04-24T01:41:59;17.20;52.40
20866;DHT22;10593;48.398;10.698;2023-04-24T01:44:26;17.10;52.40
20866;DHT22;10593;48.398;10.698;2023-04-24T01:46:52;17.10;52.40
20866;DHT22;10593;48.398;10.698;2023-04-24T01:49:19;17.10;52.40
20866;DHT22;10593;48.398;10.698;2023-04-24T01:51:45;17.10;52.40
20866;DHT22;10593;48.398;10.698;2023-04-24T01:54:11;17.10;52.40
20866;DHT22;10593;48.398;10.698;2023-04-24T01:56:41;17.10;52.50
20866;DHT22;10593;48.398;10.698;2023-04-24T01:59:09;17.10;52.50
20866;DHT22;10593;48.398;10.698;2023-04-24T02:01:37;17.00;52.40
20866;DHT22;10593;48.398;10.698;2023-04-24T02:04:07;17.00;52.40
20866;DHT22;10593;48.398;10.698;2023-04-24T02:06:33;17.00;52.60
20866;DHT22;10593;48.398;10.698;2023-04-24T02:08:59;17.00;52.50
20866;DHT22;10593;48.398;10.698;2023-04-24T02:11:25;17.00;52.70
20866;DHT22;10593;48.398;10.698;2023-04-24T02:13:52;17.00;52.60
20866;DHT22;10593;48.398;10.698;2023-04-24T02:16:18;17.00;52.60
20866;DHT22;10593;48.398;10.698;2023-04-24T02:18:44;17.00;52.70
20866;DHT22;10593;48.398;10.698;2023-04-24T02:21:10;17.00;52.70
20866;DHT22;10593;48.398;10.698;2023-04-24T02:23:36;16.90;52.60
20866;DHT22;10593;48.398;10.698;2023-04-24T02:26:01;16.90;52.60
20866;DHT22;10593;48.398;10.698;2023-04-24T02:28:27;16.90;52.70
20866;DHT22;10593;48.398;10.698;2023-04-24T02:30:53;16.90;52.60
20866;DHT22;10593;48.398;10.698;2023-04-24T02:33:19;16.80;52.60
20866;DHT22;10593;48.398;10.698;2023-04-24T02:35:45;16.90;52.70
20866;DHT22;10593;48.398;10.698;2023-04-24T02:38:10;16.90;52.70
20866;DHT22;10593;48.398;10.698;2023-04-24T02:40:36;16.90;52.70
20866;DHT22;10593;48.398;10.698;2023-04-24T02:43:02;16.90;52.70
20866;DHT22;10593;48.398;10.698;2023-04-24T02:45:27;16.80;52.60
20866;DHT22;10593;48.398;10.698;2023-04-24T02:47:53;16.80;52.60
20866;DHT22;10593;48.398;10.698;2023-04-24T02:50:19;16.80;52.60
20866;DHT22;10593;48.398;10.698;2023-04-24T02:52:44;16.80;52.60
20866;DHT22;10593;48.398;10.698;2023-04-24T02:55:10;16.80;52.70
20866;DHT22;10593;48.398;10.698;2023-04-24T02:57:36;16.70;52.60
20866;DHT22;10593;48.398;10.698;2023-04-24T03:00:01;16.80;52.70
20866;DHT22;10593;48.398;10.698;2023-04-24T03:02:28;16.70;52.70
20866;DHT22;10593;48.398;10.698;2023-04-24T03:04:54;16.70;52.60
20866;DHT22;10593;48.398;10.698;2023-04-24T03:07:20;16.70;52.70
20866;DHT22;10593;48.398;10.698;2023-04-24T03:09:46;16.70;52.70
20866;DHT22;10593;48.398;10.698;2023-04-24T03:12:13;16.70;52.70
20866;DHT22;10593;48.398;10.698;2023-04-24T03:14:38;16.70;52.70
20866;DHT22;10593;48.398;10.698;2023-04-24T03:17:04;16.70;52.70
20866;DHT22;10593;48.398;10.698;2023-04-24T03:19:29;16.70;52.80
20866;DHT22;10593;48.398;10.698;2023-04-24T03:21:55;16.70;52.80
20866;DHT22;10593;48.398;10.698;2023-04-24T03:24:21;16.60;52.70
20866;DHT22;10593;48.398;10.698;2023-04-24T03:26:47;16.60;52.70
20866;DHT22;10593;48.398;10.698;2023-04-24T03:29:13;16.60;52.70
20866;DHT22;10593;48.398;10.698;2023-04-24T03:31:39;16.60;52.70
20866;DHT22;10593;48.398;10.698;2023-04-24T03:34:04;16.60;52.70
20866;DHT22;10593;48.398;10.698;2023-04-24T03:36:30;16.60;52.70
20866;DHT22;10593;48.398;10.698;2023-04-24T03:38:56;16.60;52.70
20866;DHT22;10593;48.398;10.698;2023-04-24T03:41:22;16.60;52.70
20866;DHT22;10593;48.398;10.698;2023-04-24T03:43:48;16.50;52.70
20866;DHT22;10593;48.398;10.698;2023-04-24T03:46:13;16.50;52.80
20866;DHT22;10593;48.398;10.698;2023-04-24T03:48:39;16.50;52.80
20866;DHT22;10593;48.398;10.698;2023-04-24T03:51:05;16.50;52.80
20866;DHT22;10593;48.398;10.698;2023-04-24T03:53:30;16.50;52.90
20866;DHT22;10593;48.398;10.698;2023-04-24T03:55:56;16.50;52.90
20866;DHT22;10593;48.398;10.698;2023-04-24T03:58:21;16.50;52.90
20866;DHT22;10593;48.398;10.698;2023-04-24T04:00:47;16.50;52.90
20866;DHT22;10593;48.398;10.698;2023-04-24T04:03:13;16.50;52.90
20866;DHT22;10593;48.398;10.698;2023-04-24T04:05:40;16.40;52.80
20866;DHT22;10593;48.398;10.698;2023-04-24T04:08:06;16.50;52.90
20866;DHT22;10593;48.398;10.698;2023-04-24T04:10:31;16.40;52.80
20866;DHT22;10593;48.398;10.698;2023-04-24T04:12:57;16.40;52.90
20866;DHT22;10593;48.398;10.698;2023-04-24T04:15:22;16.40;52.90
20866;DHT22;10593;48.398;10.698;2023-04-24T04:17:48;16.40;52.90
20866;DHT22;10593;48.398;10.698;2023-04-24T04:20:14;16.40;52.90
20866;DHT22;10593;48.398;10.698;2023-04-24T04:22:43;16.40;52.90
20866;DHT22;10593;48.398;10.698;2023-04-24T04:25:09;16.40;52.90
20866;DHT22;10593;48.398;10.698;2023-04-24T04:27:34;16.30;52.90
20866;DHT22;10593;48.398;10.698;2023-04-24T04:30:01;16.40;52.90
20866;DHT22;10593;48.398;10.698;2023-04-24T04:32:33;16.30;52.90
20866;DHT22;10593;48.398;10.698;2023-04-24T04:35:00;16.30;52.90
20866;DHT22;10593;48.398;10.698;2023-04-24T04:37:29;16.30;52.90
20866;DHT22;10593;48.398;10.698;2023-04-24T04:39:55;16.30;52.90
20866;DHT22;10593;48.398;10.698;2023-04-24T04:42:20;16.30;52.90
20866;DHT22;10593;48.398;10.698;2023-04-24T04:44:46;16.30;53.00
20866;DHT22;10593;48.398;10.698;2023-04-24T04:47:12;16.30;53.00
20866;DHT22;10593;48.398;10.698;2023-04-24T04:49:38;16.30;53.00
20866;DHT22;10593;48.398;10.698;2023-04-24T04:52:04;16.20;52.90
20866;DHT22;10593;48.398;10.698;2023-04-24T04:54:30;16.20;53.00
20866;DHT22;10593;48.398;10.698;2023-04-24T04:56:56;16.20;52.90
20866;DHT22;10593;48.398;10.698;2023-04-24T04:59:22;16.20;53.00
20866;DHT22;10593;48.398;10.698;2023-04-24T05:01:48;16.20;53.10
20866;DHT22;10593;48.398;10.698;2023-04-24T05:04:13;16.20;53.10
20866;DHT22;10593;48.398;10.698;2023-04-24T05:06:39;16.20;53.10
20866;DHT22;10593;48.398;10.698;2023-04-24T05:09:05;16.20;53.10
20866;DHT22;10593;48.398;10.698;2023-04-24T05:11:32;16.20;53.10
20866;DHT22;10593;48.398;10.698;2023-04-24T05:13:58;16.20;53.10
20866;DHT22;10593;48.398;10.698;2023-04-24T05:16:24;16.20;53.10
20866;DHT22;10593;48.398;10.698;2023-04-24T05:18:49;16.20;53.10
20866;DHT22;10593;48.398;10.698;2023-04-24T05:21:18;16.10;53.00
20866;DHT22;10593;48.398;10.698;2023-04-24T05:23:44;16.20;53.10
20866;DHT22;10593;48.398;10.698;2023-04-24T05:26:09;16.10;53.00
20866;DHT22;10593;48.398;10.698;2023-04-24T05:28:35;16.10;53.00
20866;DHT22;10593;48.398;10.698;2023-04-24T05:31:02;16.10;53.00
20866;DHT22;10593;48.398;10.698;2023-04-24T05:33:28;16.10;53.00
20866;DHT22;10593;48.398;10.698;2023-04-24T05:35:54;16.10;53.00
20866;DHT22;10593;48.398;10.698;2023-04-24T05:38:19;16.10;53.00
20866;DHT22;10593;48.398;10.698;2023-04-24T05:40:45;16.10;53.00
20866;DHT22;10593;48.398;10.698;2023-04-24T05:43:12;16.10;53.00
20866;DHT22;10593;48.398;10.698;2023-04-24T05:45:38;16.10;53.00
20866;DHT22;10593;48.398;10.698;2023-04-24T05:48:04;16.10;53.00
20866;DHT22;10593;48.398;10.698;2023-04-24T05:50:30;16.10;53.00
20866;DHT22;10593;48.398;10.698;2023-04-24T05:52:55;16.10;53.00
20866;DHT22;10593;48.398;10.698;2023-04-24T05:55:24;16.10;53.00
20866;DHT22;10593;48.398;10.698;2023-04-24T05:57:50;16.10;53.00
20866;DHT22;10593;48.398;10.698;2023-04-24T06:00:17;16.10;53.00
20866;DHT22;10593;48.398;10.698;2023-04-24T06:02:45;16.10;53.00
20866;DHT22;10593;48.398;10.698;2023-04-24T06:05:11;16.10;53.00
20866;DHT22;10593;48.398;10.698;2023-04-24T06:07:37;16.10;53.00
20866;DHT22;10593;48.398;10.698;2023-04-24T06:10:03;16.00;52.90
20866;DHT22;10593;48.398;10.698;2023-04-24T06:12:29;16.00;52.90
20866;DHT22;10593;48.398;10.698;2023-04-24T06:14:54;16.10;53.00
20866;DHT22;10593;48.398;10.698;2023-04-24T06:17:23;16.00;52.90
20866;DHT22;10593;48.398;10.698;2023-04-24T06:19:48;16.00;52.90
20866;DHT22;10593;48.398;10.698;2023-04-24T06:22:14;16.00;52.90
20866;DHT22;10593;48.398;10.698;2023-04-24T06:24:40;16.00;52.90
20866;DHT22;10593;48.398;10.698;2023-04-24T06:27:06;16.00;52.90
20866;DHT22;10593;48.398;10.698;2023-04-24T06:29:33;16.00;52.90
20866;DHT22;10593;48.398;10.698;2023-04-24T06:31:59;16.00;53.00
20866;DHT22;10593;48.398;10.698;2023-04-24T06:34:25;16.00;53.10
20866;DHT22;10593;48.398;10.698;2023-04-24T06:36:50;16.00;53.10
20866;DHT22;10593;48.398;10.698;2023-04-24T06:39:16;16.00;53.10
20866;DHT22;10593;48.398;10.698;2023-04-24T06:41:42;16.00;53.10
20866;DHT22;10593;48.398;10.698;2023-04-24T06:44:08;16.00;53.10
20866;DHT22;10593;48.398;10.698;2023-04-24T06:46:33;16.00;53.00
20866;DHT22;10593;48.398;10.698;2023-04-24T06:49:00;16.00;53.00
20866;DHT22;10593;48.398;10.698;2023-04-24T06:51:26;16.00;53.00
20866;DHT22;10593;48.398;10.698;2023-04-24T06:53:55;16.00;52.90
20866;DHT22;10593;48.398;10.698;2023-04-24T06:56:22;16.00;53.00
20866;DHT22;10593;48.398;10.698;2023-04-24T06:58:47;16.00;53.00
20866;DHT22;10593;48.398;10.698;2023-04-24T07:01:13;16.00;53.00
20866;DHT22;10593;48.398;10.698;2023-04-24T07:03:39;16.00;53.00
20866;DHT22;10593;48.398;10.698;2023-04-24T07:06:05;16.00;52.90
20866;DHT22;10593;48.398;10.698;2023-04-24T07:08:31;16.00;52.90
20866;DHT22;10593;48.398;10.698;2023-04-24T07:10:58;16.00;52.90
20866;DHT22;10593;48.398;10.698;2023-04-24T07:13:27;16.00;52.90
20866;DHT22;10593;48.398;10.698;2023-04-24T07:15:53;16.00;53.00
20866;DHT22;10593;48.398;10.698;2023-04-24T07:18:20;16.00;52.90
20866;DHT22;10593;48.398;10.698;2023-04-24T07:20:47;16.00;52.90
20866;DHT22;10593;48.398;10.698;2023-04-24T07:23:12;16.00;52.90
20866;DHT22;10593;48.398;10.698;2023-04-24T07:25:38;16.00;52.90
20866;DHT22;10593;48.398;10.698;2023-04-24T07:28:04;16.00;52.90
20866;DHT22;10593;48.398;10.698;2023-04-24T07:30:31;16.00;52.90
20866;DHT22;10593;48.398;10.698;2023-04-24T07:32:58;16.00;52.90
20866;DHT22;10593;48.398;10.698;2023-04-24T07:35:25;16.00;52.80
20866;DHT22;10593;48.398;10.698;2023-04-24T07:37:53;16.00;52.60
20866;DHT22;10593;48.398;10.698;2023-04-24T07:40:19;16.00;52.60
20866;DHT22;10593;48.398;10.698;2023-04-24T07:42:45;16.00;52.60
20866;DHT22;10593;48.398;10.698;2023-04-24T07:45:13;16.00;52.60
20866;DHT22;10593;48.398;10.698;2023-04-24T07:47:41;15.90;52.60
20866;DHT22;10593;48.398;10.698;2023-04-24T07:50:09;16.00;52.80
20866;DHT22;10593;48.398;10.698;2023-04-24T07:52:35;15.90;52.80
20866;DHT22;10593;48.398;10.698;2023-04-24T07:55:01;16.00;52.90
20866;DHT22;10593;48.398;10.698;2023-04-24T07:57:27;16.00;52.90
20866;DHT22;10593;48.398;10.698;2023-04-24T07:59:53;15.90;52.80
20866;DHT22;10593;48.398;10.698;2023-04-24T08:02:19;15.90;52.90
20866;DHT22;10593;48.398;10.698;2023-04-24T08:04:46;16.00;53.70
20866;DHT22;10593;48.398;10.698;2023-04-24T08:07:12;15.90;53.20
20866;DHT22;10593;48.398;10.698;2023-04-24T08:09:38;15.90;53.20
20866;DHT22;10593;48.398;10.698;2023-04-24T08:12:04;16.00;53.30
20866;DHT22;10593;48.398;10.698;2023-04-24T08:14:29;16.00;53.30
20866;DHT22;10593;48.398;10.698;2023-04-24T08:16:55;16.00;53.30
20866;DHT22;10593;48.398;10.698;2023-04-24T08:19:21;16.00;53.20
20866;DHT22;10593;48.398;10.698;2023-04-24T08:21:47;16.00;53.20
20866;DHT22;10593;48.398;10.698;2023-04-24T08:24:13;16.00;53.30
20866;DHT22;10593;48.398;10.698;2023-04-24T08:26:39;16.00;53.20
20866;DHT22;10593;48.398;10.698;2023-04-24T08:29:05;16.00;53.20
20866;DHT22;10593;48.398;10.698;2023-04-24T08:31:32;16.00;53.30
20866;DHT22;10593;48.398;10.698;2023-04-24T08:33:57;16.10;53.20
20866;DHT22;10593;48.398;10.698;2023-04-24T08:36:23;16.10;53.00
20866;DHT22;10593;48.398;10.698;2023-04-24T08:38:49;16.10;53.00
20866;DHT22;10593;48.398;10.698;2023-04-24T08:41:15;16.10;53.00
20866;DHT22;10593;48.398;10.698;2023-04-24T08:43:43;16.10;53.00
20866;DHT22;10593;48.398;10.698;2023-04-24T08:46:13;16.10;53.00
20866;DHT22;10593;48.398;10.698;2023-04-24T08:48:39;16.10;53.00
20866;DHT22;10593;48.398;10.698;2023-04-24T08:51:08;16.20;53.00
20866;DHT22;10593;48.398;10.698;2023-04-24T08:53:35;16.20;53.00
20866;DHT22;10593;48.398;10.698;2023-04-24T08:56:01;16.20;53.60
20866;DHT22;10593;48.398;10.698;2023-04-24T08:58:28;16.30;52.90
20866;DHT22;10593;48.398;10.698;2023-04-24T09:00:55;16.30;53.00
20866;DHT22;10593;48.398;10.698;2023-04-24T09:03:21;16.30;52.90
20866;DHT22;10593;48.398;10.698;2023-04-24T09:05:49;16.40;52.80
20866;DHT22;10593;48.398;10.698;2023-04-24T09:08:18;16.30;52.50
20866;DHT22;10593;48.398;10.698;2023-04-24T09:10:44;16.40;52.30
20866;DHT22;10593;48.398;10.698;2023-04-24T09:13:10;16.40;52.20
20866;DHT22;10593;48.398;10.698;2023-04-24T09:15:37;16.50;52.20
20866;DHT22;10593;48.398;10.698;2023-04-24T09:18:04;16.50;52.10
20866;DHT22;10593;48.398;10.698;2023-04-24T09:20:31;16.50;52.20
20866;DHT22;10593;48.398;10.698;2023-04-24T09:22:58;16.50;51.90
20866;DHT22;10593;48.398;10.698;2023-04-24T09:25:34;16.50;51.70
20866;DHT22;10593;48.398;10.698;2023-04-24T09:28:04;16.60;51.20
20866;DHT22;10593;48.398;10.698;2023-04-24T09:30:32;16.60;51.40
20866;DHT22;10593;48.398;10.698;2023-04-24T09:33:14;16.60;51.50
20866;DHT22;10593;48.398;10.698;2023-04-24T09:35:51;16.70;51.50
20866;DHT22;10593;48.398;10.698;2023-04-24T09:38:17;16.70;51.30
20866;DHT22;10593;48.398;10.698;2023-04-24T09:40:43;16.70;51.50
20866;DHT22;10593;48.398;10.698;2023-04-24T09:43:12;16.80;51.50
20866;DHT22;10593;48.398;10.698;2023-04-24T09:45:39;16.80;51.20
20866;DHT22;10593;48.398;10.698;2023-04-24T09:48:07;16.80;51.00
20866;DHT22;10593;48.398;10.698;2023-04-24T09:50:34;16.80;50.60
20866;DHT22;10593;48.398;10.698;2023-04-24T09:53:04;16.90;50.30
20866;DHT22;10593;48.398;10.698;2023-04-24T09:55:40;16.90;50.00
20866;DHT22;10593;48.398;10.698;2023-04-24T09:58:11;16.90;50.30
20866;DHT22;10593;48.398;10.698;2023-04-24T10:00:36;16.90;50.20
20866;DHT22;10593;48.398;10.698;2023-04-24T10:03:05;16.90;50.20
20866;DHT22;10593;48.398;10.698;2023-04-24T10:05:33;16.80;50.10
20866;DHT22;10593;48.398;10.698;2023-04-24T10:08:02;16.80;50.10
20866;DHT22;10593;48.398;10.698;2023-04-24T10:10:33;16.80;50.10
20866;DHT22;10593;48.398;10.698;2023-04-24T10:13:01;16.70;50.10
20866;DHT22;10593;48.398;10.698;2023-04-24T10:15:29;16.70;50.10
20866;DHT22;10593;48.398;10.698;2023-04-24T10:17:58;16.70;50.10
20866;DHT22;10593;48.398;10.698;2023-04-24T10:20:27;16.70;50.10
20866;DHT22;10593;48.398;10.698;2023-04-24T10:22:55;16.70;50.10
20866;DHT22;10593;48.398;10.698;2023-04-24T10:25:25;16.60;50.00
20866;DHT22;10593;48.398;10.698;2023-04-24T10:27:53;16.60;50.00
20866;DHT22;10593;48.398;10.698;2023-04-24T10:30:23;16.60;50.00
20866;DHT22;10593;48.398;10.698;2023-04-24T10:32:49;16.60;50.00
20866;DHT22;10593;48.398;10.698;2023-04-24T10:35:15;16.60;50.00
20866;DHT22;10593;48.398;10.698;2023-04-24T10:37:45;16.50;49.90
20866;DHT22;10593;48.398;10.698;2023-04-24T10:40:17;16.50;50.00
20866;DHT22;10593;48.398;10.698;2023-04-24T10:42:47;16.50;50.00
20866;DHT22;10593;48.398;10.698;2023-04-24T10:45:20;16.60;50.20
20866;DHT22;10593;48.398;10.698;2023-04-24T10:48:02;16.60;50.20
20866;DHT22;10593;48.398;10.698;2023-04-24T10:50:45;16.60;50.00
20866;DHT22;10593;48.398;10.698;2023-04-24T10:53:16;16.60;49.90
20866;DHT22;10593;48.398;10.698;2023-04-24T10:55:46;16.60;49.80
20866;DHT22;10593;48.398;10.698;2023-04-24T10:58:14;16.60;49.60
20866;DHT22;10593;48.398;10.698;2023-04-24T11:00:42;16.60;49.00
20866;DHT22;10593;48.398;10.698;2023-04-24T11:03:27;16.60;48.40
20866;DHT22;10593;48.398;10.698;2023-04-24T11:08:30;16.70;48.20
20866;DHT22;10593;48.398;10.698;2023-04-24T11:11:12;16.60;47.90
20866;DHT22;10593;48.398;10.698;2023-04-24T11:22:14;16.70;46.90
20866;DHT22;10593;48.398;10.698;2023-04-24T11:27:18;16.70;47.50
20866;DHT22;10593;48.398;10.698;2023-04-24T11:32:40;16.70;47.30
20866;DHT22;10593;48.398;10.698;2023-04-24T11:35:19;16.80;46.70
20866;DHT22;10593;48.398;10.698;2023-04-24T11:37:51;16.80;46.70
20866;DHT22;10593;48.398;10.698;2023-04-24T11:40:19;16.80;45.70
20866;DHT22;10593;48.398;10.698;2023-04-24T11:42:53;16.80;45.30
20866;DHT22;10593;48.398;10.698;2023-04-24T11:45:26;16.80;45.00
20866;DHT22;10593;48.398;10.698;2023-04-24T11:47:55;16.80;45.30
20866;DHT22;10593;48.398;10.698;2023-04-24T11:50:25;16.80;45.50
20866;DHT22;10593;48.398;10.698;2023-04-24T11:52:53;16.80;45.30
20866;DHT22;10593;48.398;10.698;2023-04-24T11:57:46;16.90;45.40
20866;DHT22;10593;48.398;10.698;2023-04-24T12:00:21;16.90;45.30
20866;DHT22;10593;48.398;10.698;2023-04-24T12:02:49;16.90;45.00
20866;DHT22;10593;48.398;10.698;2023-04-24T12:05:28;16.90;45.10
20866;DHT22;10593;48.398;10.698;2023-04-24T12:07:56;16.90;44.50
20866;DHT22;10593;48.398;10.698;2023-04-24T12:10:23;16.90;45.00
20866;DHT22;10593;48.398;10.698;2023-04-24T12:12:51;16.90;45.00
20866;DHT22;10593;48.398;10.698;2023-04-24T12:15:19;16.90;44.50
20866;DHT22;10593;48.398;10.698;2023-04-24T12:17:45;16.90;44.50
20866;DHT22;10593;48.398;10.698;2023-04-24T12:20:12;16.90;44.60
20866;DHT22;10593;48.398;10.698;2023-04-24T12:22:52;16.90;44.80
20866;DHT22;10593;48.398;10.698;2023-04-24T12:25:24;16.90;44.50
20866;DHT22;10593;48.398;10.698;2023-04-24T12:28:11;16.90;44.60
20866;DHT22;10593;48.398;10.698;2023-04-24T12:30:47;16.90;44.50
20866;DHT22;10593;48.398;10.698;2023-04-24T12:33:20;16.90;44.50
20866;DHT22;10593;48.398;10.698;2023-04-24T12:35:48;16.90;44.30
20866;DHT22;10593;48.398;10.698;2023-04-24T12:38:22;16.90;43.90
20866;DHT22;10593;48.398;10.698;2023-04-24T12:41:05;16.90;43.30
20866;DHT22;10593;48.398;10.698;2023-04-24T12:43:32;16.90;42.70
20866;DHT22;10593;48.398;10.698;2023-04-24T12:45:58;16.90;43.10
20866;DHT22;10593;48.398;10.698;2023-04-24T12:48:25;16.90;43.30
20866;DHT22;10593;48.398;10.698;2023-04-24T12:50:51;17.00;43.40
20866;DHT22;10593;48.398;10.698;2023-04-24T12:53:17;16.90;43.30
20866;DHT22;10593;48.398;10.698;2023-04-24T12:55:43;16.90;43.10
20866;DHT22;10593;48.398;10.698;2023-04-24T12:58:10;16.90;42.50
20866;DHT22;10593;48.398;10.698;2023-04-24T13:00:36;16.90;42.00
20866;DHT22;10593;48.398;10.698;2023-04-24T13:03:02;16.90;42.10
20866;DHT22;10593;48.398;10.698;2023-04-24T13:05:28;16.90;42.20
20866;DHT22;10593;48.398;10.698;2023-04-24T13:07:54;16.90;42.00
20866;DHT22;10593;48.398;10.698;2023-04-24T13:10:20;16.90;42.00
20866;DHT22;10593;48.398;10.698;2023-04-24T13:12:45;16.90;41.80
20866;DHT22;10593;48.398;10.698;2023-04-24T13:15:12;17.00;42.20
20866;DHT22;10593;48.398;10.698;2023-04-24T13:17:37;17.00;42.30
20866;DHT22;10593;48.398;10.698;2023-04-24T13:20:04;17.00;42.20
20866;DHT22;10593;48.398;10.698;2023-04-24T13:22:30;17.00;41.90
20866;DHT22;10593;48.398;10.698;2023-04-24T13:24:55;17.00;41.40
20866;DHT22;10593;48.398;10.698;2023-04-24T13:27:21;17.00;42.00
20866;DHT22;10593;48.398;10.698;2023-04-24T13:29:47;17.10;41.80
20866;DHT22;10593;48.398;10.698;2023-04-24T13:32:12;17.00;41.70
20866;DHT22;10593;48.398;10.698;2023-04-24T13:34:38;17.10;41.70
20866;DHT22;10593;48.398;10.698;2023-04-24T13:37:08;17.10;41.70
20866;DHT22;10593;48.398;10.698;2023-04-24T13:39:33;17.10;41.70
20866;DHT22;10593;48.398;10.698;2023-04-24T13:41:59;17.10;41.70
20866;DHT22;10593;48.398;10.698;2023-04-24T13:44:26;17.10;41.30
20866;DHT22;10593;48.398;10.698;2023-04-24T13:46:54;17.10;41.10
20866;DHT22;10593;48.398;10.698;2023-04-24T13:49:23;17.10;41.00
20866;DHT22;10593;48.398;10.698;2023-04-24T13:51:51;17.00;41.20
20866;DHT22;10593;48.398;10.698;2023-04-24T13:54:17;17.10;41.20
20866;DHT22;10593;48.398;10.698;2023-04-24T13:56:43;17.00;40.90
20866;DHT22;10593;48.398;10.698;2023-04-24T13:59:09;17.00;40.90
20866;DHT22;10593;48.398;10.698;2023-04-24T14:01:35;17.00;41.00
20866;DHT22;10593;48.398;10.698;2023-04-24T14:04:01;17.10;40.90
20866;DHT22;10593;48.398;10.698;2023-04-24T14:06:26;17.00;40.60
20866;DHT22;10593;48.398;10.698;2023-04-24T14:08:52;17.10;40.90
20866;DHT22;10593;48.398;10.698;2023-04-24T14:11:18;17.00;40.90
20866;DHT22;10593;48.398;10.698;2023-04-24T14:13:45;17.00;41.00
20866;DHT22;10593;48.398;10.698;2023-04-24T14:16:11;17.00;41.00
20866;DHT22;10593;48.398;10.698;2023-04-24T14:18:37;17.00;41.10
20866;DHT22;10593;48.398;10.698;2023-04-24T14:21:03;17.00;40.90
20866;DHT22;10593;48.398;10.698;2023-04-24T14:23:29;17.00;40.80
20866;DHT22;10593;48.398;10.698;2023-04-24T14:25:56;17.00;40.80
20866;DHT22;10593;48.398;10.698;2023-04-24T14:28:23;17.10;41.00
20866;DHT22;10593;48.398;10.698;2023-04-24T14:30:49;17.00;41.00
20866;DHT22;10593;48.398;10.698;2023-04-24T14:33:15;17.10;40.90
20866;DHT22;10593;48.398;10.698;2023-04-24T14:35:42;17.10;40.90
20866;DHT22;10593;48.398;10.698;2023-04-24T14:38:08;17.10;40.60
20866;DHT22;10593;48.398;10.698;2023-04-24T14:40:34;17.00;40.30
20866;DHT22;10593;48.398;10.698;2023-04-24T14:43:00;17.10;40.60
20866;DHT22;10593;48.398;10.698;2023-04-24T14:45:26;17.10;40.80
20866;DHT22;10593;48.398;10.698;2023-04-24T14:47:53;17.10;40.90
20866;DHT22;10593;48.398;10.698;2023-04-24T14:50:19;17.10;41.50
20866;DHT22;10593;48.398;10.698;2023-04-24T14:52:45;17.10;40.90
20866;DHT22;10593;48.398;10.698;2023-04-24T14:55:11;17.10;40.80
20866;DHT22;10593;48.398;10.698;2023-04-24T14:57:37;17.10;40.70
20866;DHT22;10593;48.398;10.698;2023-04-24T15:00:07;17.10;40.80
20866;DHT22;10593;48.398;10.698;2023-04-24T15:02:35;17.10;40.80
20866;DHT22;10593;48.398;10.698;2023-04-24T15:05:05;17.10;40.70
20866;DHT22;10593;48.398;10.698;2023-04-24T15:07:31;17.10;40.60
20866;DHT22;10593;48.398;10.698;2023-04-24T15:09:58;17.10;40.40
20866;DHT22;10593;48.398;10.698;2023-04-24T15:12:23;17.10;40.40
20866;DHT22;10593;48.398;10.698;2023-04-24T15:14:50;17.10;40.40
20866;DHT22;10593;48.398;10.698;2023-04-24T15:17:15;17.10;40.00
20866;DHT22;10593;48.398;10.698;2023-04-24T15:19:41;17.10;39.90
20866;DHT22;10593;48.398;10.698;2023-04-24T15:22:07;17.10;39.90
20866;DHT22;10593;48.398;10.698;2023-04-24T15:24:32;17.10;39.90
20866;DHT22;10593;48.398;10.698;2023-04-24T15:26:59;17.10;40.10
20866;DHT22;10593;48.398;10.698;2023-04-24T15:29:27;17.10;40.20
20866;DHT22;10593;48.398;10.698;2023-04-24T15:31:53;17.10;40.30
20866;DHT22;10593;48.398;10.698;2023-04-24T15:34:18;17.10;40.30